createdAt,value
2016-07-16T00:00:48.125Z,23.94
2016-07-16T00:01:48.134Z,23.85
2016-07-16T00:02:48.944Z,23.79
2016-07-16T00:03:49.004Z,23.76
2016-07-16T00:04:48.256Z,23.85
2016-07-16T00:05:47.480Z,23.93
2016-07-16T00:06:48.945Z,23.95
2016-07-16T00:07:48.208Z,23.9
2016-07-16T00:08:49.035Z,23.94
2016-07-16T00:09:49.006Z,23.87
2016-07-16T00:10:48.183Z,23.91
2016-07-16T00:11:47.455Z,23.91
2016-07-16T00:12:48.874Z,23.87
2016-07-16T00:13:48.281Z,23.91
2016-07-16T00:14:48.176Z,23.98
2016-07-16T00:15:49.042Z,23.9
2016-07-16T00:16:48.283Z,23.84
2016-07-16T00:17:48.283Z,23.95
2016-07-16T00:18:49.060Z,23.91
2016-07-16T00:19:48.369Z,23.98
2016-07-16T00:20:48.940Z,23.94
2016-07-16T00:21:48.246Z,24.03
2016-07-16T00:22:48.210Z,23.94
2016-07-16T00:23:48.324Z,23.97
2016-07-16T00:24:49.123Z,23.95
2016-07-16T00:25:48.225Z,23.95
2016-07-16T00:26:48.315Z,23.97
2016-07-16T00:27:47.631Z,23.91
2016-07-16T00:28:48.368Z,23.93
2016-07-16T00:29:47.536Z,23.98
2016-07-16T00:30:48.386Z,23.91
2016-07-16T00:31:49.007Z,23.93
2016-07-16T00:32:49.099Z,23.98
2016-07-16T00:33:48.312Z,24
2016-07-16T00:34:48.994Z,23.97
2016-07-16T00:35:48.314Z,24.05
2016-07-16T00:36:47.572Z,24.03
2016-07-16T00:37:49.098Z,23.95
2016-07-16T00:38:48.989Z,24.03
2016-07-16T00:39:48.334Z,23.97
2016-07-16T00:40:49.099Z,24.05
2016-07-16T00:41:48.316Z,23.98
2016-07-16T00:42:48.300Z,24
2016-07-16T00:43:48.380Z,23.93
2016-07-16T00:44:48.348Z,23.94
2016-07-16T00:45:49.023Z,23.95
2016-07-16T00:46:49.128Z,23.91
2016-07-16T00:47:48.323Z,23.98
2016-07-16T00:48:48.341Z,23.91
2016-07-16T00:49:49.097Z,23.83
2016-07-16T00:50:48.479Z,23.91
2016-07-16T00:51:48.458Z,23.97
2016-07-16T00:52:48.438Z,23.9
2016-07-16T00:53:48.350Z,23.93
2016-07-16T00:54:48.355Z,24
2016-07-16T00:55:49.209Z,23.95
2016-07-16T00:56:48.367Z,23.9
2016-07-16T00:57:49.136Z,24.02
2016-07-16T00:58:49.209Z,23.97
2016-07-16T00:59:48.377Z,23.95
2016-07-16T01:00:48.386Z,23.98
2016-07-16T01:01:49.202Z,23.9
2016-07-16T01:02:48.503Z,23.95
2016-07-16T01:03:49.108Z,23.94
2016-07-16T01:04:48.426Z,24.03
2016-07-16T01:05:48.691Z,24.06
2016-07-16T01:06:48.410Z,24.02
2016-07-16T01:07:47.911Z,23.94
2016-07-16T01:08:47.711Z,23.95
2016-07-16T01:09:49.267Z,23.94
2016-07-16T01:10:49.168Z,23.88
2016-07-16T01:11:49.142Z,24
2016-07-16T01:12:48.441Z,23.98
2016-07-16T01:13:49.226Z,23.98
2016-07-16T01:14:48.556Z,24
2016-07-16T01:15:48.619Z,23.97
2016-07-16T01:16:47.885Z,23.97
2016-07-16T01:17:49.242Z,23.91
2016-07-16T01:18:49.200Z,23.95
2016-07-16T01:19:48.468Z,23.98
2016-07-16T01:20:48.477Z,23.94
2016-07-16T01:21:48.502Z,23.9
2016-07-16T01:22:49.234Z,23.94
2016-07-16T01:23:48.565Z,23.91
2016-07-16T01:24:48.587Z,23.88
2016-07-16T01:25:49.349Z,23.88
2016-07-16T01:26:49.322Z,23.88
2016-07-16T01:27:48.550Z,23.93
2016-07-16T01:28:48.631Z,23.95
2016-07-16T01:29:48.521Z,23.93
2016-07-16T01:30:49.321Z,23.84
2016-07-16T01:31:48.589Z,23.93
2016-07-16T01:32:49.333Z,23.95
2016-07-16T01:33:48.682Z,23.95
2016-07-16T01:34:49.391Z,23.91
2016-07-16T01:35:48.542Z,23.94
2016-07-16T01:36:49.309Z,23.9
2016-07-16T01:37:47.846Z,23.91
2016-07-16T01:38:49.328Z,23.91
2016-07-16T01:39:49.267Z,23.83
2016-07-16T01:40:49.293Z,23.93
2016-07-16T01:41:48.595Z,23.87
2016-07-16T01:42:49.332Z,23.84
2016-07-16T01:43:49.462Z,23.85
2016-07-16T01:44:48.593Z,23.84
2016-07-16T01:45:49.425Z,23.91
2016-07-16T01:46:49.385Z,23.79
2016-07-16T01:47:49.352Z,23.94
2016-07-16T01:48:47.894Z,23.84
2016-07-16T01:49:49.377Z,23.87
2016-07-16T01:50:48.704Z,23.95
2016-07-16T01:51:48.681Z,23.87
2016-07-16T01:52:49.336Z,23.9
2016-07-16T01:53:49.413Z,23.94
2016-07-16T01:54:48.640Z,23.94
2016-07-16T01:55:48.827Z,23.84
2016-07-16T01:56:49.311Z,23.88
2016-07-16T01:57:49.456Z,24
2016-07-16T01:58:48.775Z,23.97
2016-07-16T01:59:47.946Z,23.94
2016-07-16T02:00:49.437Z,23.88
2016-07-16T02:01:49.449Z,23.95
2016-07-16T02:02:48.682Z,23.88
2016-07-16T02:03:47.966Z,23.9
2016-07-16T02:04:48.678Z,23.85
2016-07-16T02:05:48.679Z,23.84
2016-07-16T02:06:47.990Z,23.93
2016-07-16T02:07:49.485Z,23.9
2016-07-16T02:08:48.696Z,23.93
2016-07-16T02:09:48.837Z,23.93
2016-07-16T02:10:49.499Z,23.85
2016-07-16T02:11:48.000Z,23.8
2016-07-16T02:12:48.786Z,23.93
2016-07-16T02:13:48.781Z,24.03
2016-07-16T02:14:48.730Z,23.95
2016-07-16T02:15:48.729Z,23.98
2016-07-16T02:16:48.734Z,23.91
2016-07-16T02:17:49.524Z,23.98
2016-07-16T02:18:48.780Z,23.9
2016-07-16T02:19:49.500Z,23.87
2016-07-16T02:20:48.767Z,23.93
2016-07-16T02:21:49.518Z,23.91
2016-07-16T02:22:49.583Z,23.88
2016-07-16T02:23:48.816Z,23.87
2016-07-16T02:24:48.770Z,23.91
2016-07-16T02:25:49.479Z,23.8
2016-07-16T02:26:49.508Z,23.9
2016-07-16T02:27:48.783Z,23.93
2016-07-16T02:28:49.499Z,23.85
2016-07-16T02:29:49.526Z,23.85
2016-07-16T02:30:48.806Z,23.88
2016-07-16T02:31:48.890Z,23.95
2016-07-16T02:32:48.848Z,23.94
2016-07-16T02:33:48.830Z,23.93
2016-07-16T02:34:48.157Z,23.93
2016-07-16T02:35:49.525Z,23.85
2016-07-16T02:36:48.820Z,23.97
2016-07-16T02:37:48.834Z,24.06
2016-07-16T02:38:48.128Z,24
2016-07-16T02:39:48.836Z,23.93
2016-07-16T02:40:48.844Z,23.93
2016-07-16T02:41:49.554Z,24.06
2016-07-16T02:42:49.561Z,23.94
2016-07-16T02:43:48.863Z,23.94
2016-07-16T02:44:48.913Z,23.88
2016-07-16T02:45:48.879Z,23.83
2016-07-16T02:46:49.580Z,23.88
2016-07-16T02:47:49.583Z,23.85
2016-07-16T02:48:49.589Z,23.9
2016-07-16T02:49:48.886Z,24.03
2016-07-16T02:50:49.599Z,23.97
2016-07-16T02:51:49.604Z,23.94
2016-07-16T02:52:48.905Z,24.03
2016-07-16T02:53:49.613Z,24
2016-07-16T02:54:48.202Z,24.02
2016-07-16T02:55:48.259Z,23.97
2016-07-16T02:56:48.928Z,23.91
2016-07-16T02:57:49.631Z,24.03
2016-07-16T02:58:48.931Z,24.05
2016-07-16T02:59:49.648Z,23.95
2016-07-16T03:00:48.942Z,23.93
2016-07-16T03:01:49.652Z,23.85
2016-07-16T03:02:49.654Z,23.93
2016-07-16T03:03:49.663Z,23.87
2016-07-16T03:04:48.959Z,23.91
2016-07-16T03:05:49.674Z,23.93
2016-07-16T03:06:49.672Z,23.98
2016-07-16T03:07:48.982Z,23.91
2016-07-16T03:08:49.032Z,24
2016-07-16T03:09:49.687Z,23.8
2016-07-16T03:10:49.776Z,23.91
2016-07-16T03:11:48.283Z,23.85
2016-07-16T03:12:48.995Z,23.84
2016-07-16T03:13:48.296Z,23.76
2016-07-16T03:14:49.006Z,23.78
2016-07-16T03:15:49.718Z,23.88
2016-07-16T03:16:49.013Z,23.83
2016-07-16T03:17:49.026Z,23.73
2016-07-16T03:18:49.041Z,23.84
2016-07-16T03:19:49.026Z,23.79
2016-07-16T03:20:49.742Z,23.88
2016-07-16T03:21:48.330Z,23.88
2016-07-16T03:22:49.748Z,23.88
2016-07-16T03:23:49.045Z,23.94
2016-07-16T03:24:49.112Z,23.78
2016-07-16T03:25:48.348Z,23.9
2016-07-16T03:26:49.226Z,23.85
2016-07-16T03:27:49.206Z,23.85
2016-07-16T03:28:48.448Z,23.79
2016-07-16T03:29:49.118Z,23.87
2016-07-16T03:30:48.369Z,23.79
2016-07-16T03:31:49.841Z,23.76
2016-07-16T03:32:49.812Z,23.84
2016-07-16T03:33:49.798Z,23.8
2016-07-16T03:34:49.855Z,23.88
2016-07-16T03:35:49.117Z,23.84
2016-07-16T03:36:49.107Z,23.93
2016-07-16T03:37:49.110Z,23.87
2016-07-16T03:38:49.116Z,23.9
2016-07-16T03:39:49.915Z,23.85
2016-07-16T03:40:49.265Z,23.94
2016-07-16T03:41:49.863Z,23.97
2016-07-16T03:42:49.956Z,23.98
2016-07-16T03:43:49.180Z,23.88
2016-07-16T03:44:50.025Z,23.95
2016-07-16T03:45:49.274Z,23.87
2016-07-16T03:46:49.240Z,23.93
2016-07-16T03:47:49.238Z,23.78
2016-07-16T03:48:49.892Z,23.79
2016-07-16T03:49:49.978Z,23.85
2016-07-16T03:50:48.465Z,23.79
2016-07-16T03:51:49.226Z,23.78
2016-07-16T03:52:49.954Z,23.88
2016-07-16T03:53:49.228Z,23.97
2016-07-16T03:54:49.187Z,24
2016-07-16T03:55:50.099Z,24
2016-07-16T03:56:49.258Z,23.94
2016-07-16T03:57:49.237Z,23.98
2016-07-16T03:58:49.211Z,24.08
2016-07-16T03:59:49.221Z,24.08
2016-07-16T04:00:49.216Z,24.02
2016-07-16T04:01:49.271Z,23.95
2016-07-16T04:02:48.523Z,23.94
2016-07-16T04:03:49.241Z,24.06
2016-07-16T04:04:48.534Z,24.05
2016-07-16T04:05:49.402Z,24
2016-07-16T04:06:48.541Z,23.94
2016-07-16T04:07:50.021Z,24
2016-07-16T04:08:49.260Z,23.98
2016-07-16T04:09:49.980Z,23.97
2016-07-16T04:10:50.033Z,23.91
2016-07-16T04:11:49.272Z,23.9
2016-07-16T04:12:48.579Z,23.98
2016-07-16T04:13:50.109Z,23.98
2016-07-16T04:14:49.314Z,24.05
2016-07-16T04:15:49.300Z,23.97
2016-07-16T04:16:48.592Z,23.98
2016-07-16T04:17:49.307Z,24
2016-07-16T04:18:49.321Z,24.06
2016-07-16T04:19:50.021Z,23.91
2016-07-16T04:20:49.406Z,23.93
2016-07-16T04:21:50.034Z,24
2016-07-16T04:22:50.135Z,24
2016-07-16T04:23:49.340Z,24.02
2016-07-16T04:24:49.342Z,24.05
2016-07-16T04:25:49.349Z,24.1
2016-07-16T04:26:49.352Z,24.13
2016-07-16T04:27:49.380Z,24.08
2016-07-16T04:28:49.366Z,24
2016-07-16T04:29:49.366Z,23.97
2016-07-16T04:30:48.671Z,24.08
2016-07-16T04:31:50.087Z,23.94
2016-07-16T04:32:50.093Z,24.05
2016-07-16T04:33:50.099Z,23.93
2016-07-16T04:34:50.102Z,23.93
2016-07-16T04:35:49.398Z,23.88
2016-07-16T04:36:49.456Z,23.84
2016-07-16T04:37:50.118Z,23.95
2016-07-16T04:38:50.134Z,24.02
2016-07-16T04:39:50.127Z,23.94
2016-07-16T04:40:49.423Z,23.91
2016-07-16T04:41:49.431Z,23.97
2016-07-16T04:42:49.577Z,23.95
2016-07-16T04:43:49.439Z,24.03
2016-07-16T04:44:49.446Z,24.06
2016-07-16T04:45:49.450Z,24.06
2016-07-16T04:46:50.263Z,24.02
2016-07-16T04:47:48.816Z,24.03
2016-07-16T04:48:48.760Z,24.06
2016-07-16T04:49:48.763Z,24.06
2016-07-16T04:50:49.491Z,23.91
2016-07-16T04:51:50.227Z,23.91
2016-07-16T04:52:49.484Z,23.91
2016-07-16T04:53:50.201Z,23.95
2016-07-16T04:54:49.495Z,23.98
2016-07-16T04:55:49.500Z,23.98
2016-07-16T04:56:50.216Z,24.02
2016-07-16T04:57:49.513Z,24.02
2016-07-16T04:58:49.518Z,23.94
2016-07-16T04:59:49.521Z,23.85
2016-07-16T05:00:49.534Z,23.91
2016-07-16T05:01:48.824Z,23.87
2016-07-16T05:02:50.240Z,23.9
2016-07-16T05:03:49.544Z,23.88
2016-07-16T05:04:50.254Z,24.02
2016-07-16T05:05:50.346Z,23.95
2016-07-16T05:06:49.558Z,24.02
2016-07-16T05:07:49.558Z,24.09
2016-07-16T05:09:20.819Z,23.98
2016-07-16T05:09:50.280Z,24.03
2016-07-16T05:10:48.870Z,24.03
2016-07-16T05:11:50.081Z,24.09
2016-07-16T05:12:48.880Z,23.98
2016-07-16T05:13:48.887Z,24.09
2016-07-16T05:14:48.891Z,24.1
2016-07-16T05:15:49.605Z,23.98
2016-07-16T05:16:49.609Z,24
2016-07-16T05:17:50.324Z,24.08
2016-07-16T05:18:49.619Z,24
2016-07-16T05:19:50.328Z,24.02
2016-07-16T05:20:50.727Z,24.03
2016-07-16T05:21:49.683Z,23.98
2016-07-16T05:22:50.346Z,24.02
2016-07-16T05:23:50.347Z,23.94
2016-07-16T05:24:48.952Z,23.97
2016-07-16T05:25:48.954Z,24.03
2016-07-16T05:26:50.365Z,23.87
2016-07-16T05:27:49.663Z,23.93
2016-07-16T05:28:50.372Z,23.95
2016-07-16T05:29:50.389Z,23.94
2016-07-16T05:30:48.969Z,23.95
2016-07-16T05:31:50.386Z,23.83
2016-07-16T05:32:48.976Z,23.73
2016-07-16T05:33:49.690Z,23.8
2016-07-16T05:34:50.403Z,23.72
2016-07-16T05:35:48.991Z,23.87
2016-07-16T05:36:48.996Z,23.94
2016-07-16T05:37:49.003Z,24.03
2016-07-16T05:38:50.419Z,24.06
2016-07-16T05:39:49.717Z,24.06
2016-07-16T05:40:49.018Z,24.08
2016-07-16T05:41:49.731Z,24.09
2016-07-16T05:42:49.735Z,24.08
2016-07-16T05:43:50.445Z,23.97
2016-07-16T05:44:49.032Z,23.88
2016-07-16T05:45:49.752Z,23.95
2016-07-16T05:46:50.152Z,24.05
2016-07-16T05:47:50.465Z,24.03
2016-07-16T05:48:50.470Z,24.03
2016-07-16T05:49:50.476Z,23.98
2016-07-16T05:50:50.483Z,23.91
2016-07-16T05:51:50.490Z,24.03
2016-07-16T05:52:49.790Z,24.06
2016-07-16T05:53:49.791Z,23.88
2016-07-16T05:54:49.089Z,23.88
2016-07-16T05:55:50.206Z,23.88
2016-07-16T05:56:50.519Z,23.91
2016-07-16T05:57:49.857Z,23.79
2016-07-16T05:58:49.814Z,23.7
2016-07-16T05:59:50.525Z,23.72
2016-07-16T06:00:49.818Z,23.87
2016-07-16T06:01:50.599Z,23.93
2016-07-16T06:02:50.538Z,23.78
2016-07-16T06:03:50.541Z,23.78
2016-07-16T06:04:50.385Z,23.68
2016-07-16T06:05:49.842Z,23.65
2016-07-16T06:06:50.096Z,23.85
2016-07-16T06:07:50.563Z,23.87
2016-07-16T06:08:50.564Z,23.87
2016-07-16T06:09:50.574Z,23.8
2016-07-16T06:10:49.868Z,23.88
2016-07-16T06:11:49.874Z,24.03
2016-07-16T06:12:50.584Z,24.02
2016-07-16T06:13:49.882Z,23.97
2016-07-16T06:14:49.247Z,23.93
2016-07-16T06:15:50.245Z,23.84
2016-07-16T06:16:50.601Z,23.75
2016-07-16T06:17:50.806Z,23.75
2016-07-16T06:18:50.879Z,23.57
2016-07-16T06:19:49.703Z,23.78
2016-07-16T06:20:50.631Z,23.83
2016-07-16T06:21:49.214Z,23.84
2016-07-16T06:22:49.228Z,23.95
2016-07-16T06:23:50.634Z,23.84
2016-07-16T06:24:50.651Z,23.78
2016-07-16T06:25:50.742Z,23.91
2016-07-16T06:26:51.623Z,23.97
2016-07-16T06:27:50.660Z,24
2016-07-16T06:28:50.662Z,24.02
2016-07-16T06:29:50.660Z,24.03
2016-07-16T06:30:49.330Z,24.03
2016-07-16T06:31:50.670Z,24.08
2016-07-16T06:32:49.973Z,24.18
2016-07-16T06:33:49.976Z,24.13
2016-07-16T06:34:50.096Z,24.18
2016-07-16T06:35:50.038Z,24.13
2016-07-16T06:36:49.990Z,24.13
2016-07-16T06:37:50.092Z,24.16
2016-07-16T06:38:50.304Z,24.18
2016-07-16T06:39:50.717Z,24.15
2016-07-16T06:40:50.722Z,24.21
2016-07-16T06:41:51.257Z,24.18
2016-07-16T06:42:49.317Z,24.25
2016-07-16T06:43:50.029Z,24.18
2016-07-16T06:44:50.045Z,24.21
2016-07-16T06:45:50.042Z,24.18
2016-07-16T06:46:50.752Z,24.22
2016-07-16T06:47:50.763Z,24.24
2016-07-16T06:48:49.655Z,24.2
2016-07-16T06:49:50.068Z,24.21
2016-07-16T06:50:50.070Z,24.12
2016-07-16T06:51:50.916Z,24.1
2016-07-16T06:52:49.371Z,24.2
2016-07-16T06:53:49.377Z,24.09
2016-07-16T06:54:50.803Z,24.1
2016-07-16T06:55:50.095Z,24.15
2016-07-16T06:56:50.099Z,24.25
2016-07-16T06:57:50.112Z,24.16
2016-07-16T06:58:50.112Z,24.16
2016-07-16T06:59:50.362Z,24.12
2016-07-16T07:00:50.125Z,24.09
2016-07-16T07:01:50.838Z,24.03
2016-07-16T07:02:50.837Z,24.18
2016-07-16T07:03:49.427Z,24.13
2016-07-16T07:04:50.145Z,24.22
2016-07-16T07:05:49.437Z,24.06
2016-07-16T07:06:49.443Z,24.03
2016-07-16T07:07:49.452Z,24.16
2016-07-16T07:08:50.864Z,24.13
2016-07-16T07:09:50.876Z,24.05
2016-07-16T07:10:50.171Z,24.1
2016-07-16T07:11:50.175Z,24.13
2016-07-16T07:12:51.723Z,24.13
2016-07-16T07:13:50.194Z,24.12
2016-07-16T07:14:51.251Z,24
2016-07-16T07:15:50.199Z,24.13
2016-07-16T07:16:50.916Z,24.2
2016-07-16T07:17:50.206Z,24.22
2016-07-16T07:18:50.238Z,24.25
2016-07-16T07:19:50.220Z,24.15
2016-07-16T07:20:50.225Z,23.97
2016-07-16T07:21:50.228Z,24
2016-07-16T07:22:50.943Z,24.13
2016-07-16T07:23:52.010Z,24
2016-07-16T07:24:50.950Z,24.02
2016-07-16T07:25:50.042Z,24.05
2016-07-16T07:26:50.961Z,24.16
2016-07-16T07:27:50.271Z,23.87
2016-07-16T07:28:50.264Z,23.91
2016-07-16T07:29:50.973Z,23.93
2016-07-16T07:30:50.275Z,24.02
2016-07-16T07:31:50.281Z,24.06
2016-07-16T07:32:50.988Z,24.06
2016-07-16T07:33:50.290Z,24.13
2016-07-16T07:34:50.793Z,24.09
2016-07-16T07:35:50.294Z,24.18
2016-07-16T07:36:50.306Z,24.16
2016-07-16T07:37:49.603Z,24.18
2016-07-16T07:38:49.609Z,24.18
2016-07-16T07:39:51.077Z,24.16
2016-07-16T07:40:50.325Z,24.15
2016-07-16T07:41:50.329Z,24.15
2016-07-16T07:42:49.631Z,24.1
2016-07-16T07:43:50.341Z,24.08
2016-07-16T07:44:50.343Z,24.05
2016-07-16T07:45:50.618Z,24.02
2016-07-16T07:46:49.654Z,23.97
2016-07-16T07:47:50.360Z,24.13
2016-07-16T07:48:49.660Z,24.2
2016-07-16T07:49:50.382Z,24.22
2016-07-16T07:50:51.082Z,24.13
2016-07-16T07:51:50.379Z,24.25
2016-07-16T07:52:50.388Z,24.22
2016-07-16T07:53:50.392Z,24.2
2016-07-16T07:54:50.398Z,24.16
2016-07-16T07:55:49.692Z,24.24
2016-07-16T07:56:50.410Z,24.05
2016-07-16T07:57:50.417Z,23.97
2016-07-16T07:58:49.714Z,24.03
2016-07-16T07:59:51.132Z,23.94
2016-07-16T08:00:51.188Z,24.06
2016-07-16T08:01:50.433Z,24.02
2016-07-16T08:02:50.446Z,24.13
2016-07-16T08:03:50.444Z,24.03
2016-07-16T08:04:50.450Z,23.9
2016-07-16T08:05:49.747Z,24
2016-07-16T08:06:50.457Z,23.85
2016-07-16T08:07:51.935Z,23.94
2016-07-16T08:08:50.472Z,23.97
2016-07-16T08:09:51.624Z,23.93
2016-07-16T08:10:50.497Z,24.03
2016-07-16T08:11:49.779Z,23.95
2016-07-16T08:12:50.489Z,24.08
2016-07-16T08:13:49.788Z,23.98
2016-07-16T08:14:51.205Z,24.06
2016-07-16T08:15:50.501Z,24.13
2016-07-16T08:16:51.213Z,24.24
2016-07-16T08:17:50.512Z,24.24
2016-07-16T08:18:49.825Z,24.13
2016-07-16T08:19:50.519Z,24.18
2016-07-16T08:20:52.033Z,24.08
2016-07-16T08:21:49.825Z,24.08
2016-07-16T08:22:50.539Z,24.12
2016-07-16T08:23:50.542Z,24.15
2016-07-16T08:24:49.839Z,24.24
2016-07-16T08:25:50.550Z,24.21
2016-07-16T08:26:51.267Z,24.22
2016-07-16T08:27:50.561Z,24.21
2016-07-16T08:28:50.567Z,24.1
2016-07-16T08:29:51.509Z,24.21
2016-07-16T08:30:51.285Z,24.22
2016-07-16T08:31:51.023Z,24.25
2016-07-16T08:32:50.585Z,24.24
2016-07-16T08:33:49.888Z,24.12
2016-07-16T08:34:50.600Z,24.18
2016-07-16T08:35:51.308Z,24.15
2016-07-16T08:36:50.612Z,24.16
2016-07-16T08:37:49.909Z,24.2
2016-07-16T08:38:50.621Z,24.15
2016-07-16T08:39:50.633Z,24.2
2016-07-16T08:40:51.220Z,24.21
2016-07-16T08:41:49.981Z,24.08
2016-07-16T08:42:50.748Z,24.1
2016-07-16T08:43:50.650Z,24.16
2016-07-16T08:44:50.658Z,24.22
2016-07-16T08:45:49.949Z,24.27
2016-07-16T08:46:51.457Z,24.08
2016-07-16T08:47:49.963Z,24.02
2016-07-16T08:48:49.971Z,24.15
2016-07-16T08:49:50.683Z,24.05
2016-07-16T08:50:49.978Z,24.16
2016-07-16T08:51:51.494Z,24.28
2016-07-16T08:52:50.696Z,24.1
2016-07-16T08:53:50.701Z,24.22
2016-07-16T08:54:50.704Z,24.3
2016-07-16T08:55:51.418Z,24.32
2016-07-16T08:56:51.424Z,24.34
2016-07-16T08:57:51.521Z,24.35
2016-07-16T08:58:50.728Z,24.4
2016-07-16T08:59:50.734Z,24.45
2016-07-16T09:00:51.462Z,24.37
2016-07-16T09:01:50.041Z,24.43
2016-07-16T09:02:50.767Z,24.52
2016-07-16T09:03:50.810Z,24.47
2016-07-16T09:04:50.830Z,24.42
2016-07-16T09:05:50.774Z,24.42
2016-07-16T09:06:51.484Z,24.32
2016-07-16T09:07:50.795Z,24.3
2016-07-16T09:08:50.081Z,24.2
2016-07-16T09:09:50.851Z,24.34
2016-07-16T09:10:50.800Z,24.35
2016-07-16T09:11:50.882Z,24.39
2016-07-16T09:12:50.115Z,24.34
2016-07-16T09:13:50.818Z,24.4
2016-07-16T09:14:51.532Z,24.32
2016-07-16T09:15:51.803Z,24.35
2016-07-16T09:16:50.836Z,24.32
2016-07-16T09:17:50.142Z,24.39
2016-07-16T09:18:50.896Z,24.32
2016-07-16T09:19:51.558Z,24.34
2016-07-16T09:20:50.857Z,24.39
2016-07-16T09:21:50.867Z,24.42
2016-07-16T09:22:51.576Z,24.3
2016-07-16T09:23:50.979Z,24.39
2016-07-16T09:24:51.586Z,24.3
2016-07-16T09:25:50.883Z,24.28
2016-07-16T09:26:52.747Z,24.24
2016-07-16T09:27:50.891Z,24.31
2016-07-16T09:28:50.900Z,24.21
2016-07-16T09:29:50.901Z,24.09
2016-07-16T09:30:50.910Z,24.06
2016-07-16T09:31:51.622Z,23.94
2016-07-16T09:32:51.623Z,24.16
2016-07-16T09:33:50.216Z,24.15
2016-07-16T09:34:51.637Z,24.22
2016-07-16T09:35:52.815Z,24.34
2016-07-16T09:36:50.939Z,24.34
2016-07-16T09:37:51.535Z,24.39
2016-07-16T09:38:51.711Z,24.3
2016-07-16T09:39:50.956Z,24.43
2016-07-16T09:40:50.969Z,24.27
2016-07-16T09:41:51.778Z,24.15
2016-07-16T09:42:50.973Z,24.16
2016-07-16T09:43:51.687Z,24.25
2016-07-16T09:44:51.691Z,24.28
2016-07-16T09:45:51.693Z,24.3
2016-07-16T09:46:52.699Z,24.27
2016-07-16T09:47:50.292Z,24.2
2016-07-16T09:48:52.360Z,24.25
2016-07-16T09:49:51.012Z,24.3
2016-07-16T09:50:50.308Z,24.34
2016-07-16T09:51:50.311Z,24.37
2016-07-16T09:52:51.781Z,24.46
2016-07-16T09:53:51.741Z,24.43
2016-07-16T09:54:50.326Z,24.3
2016-07-16T09:55:50.342Z,24.39
2016-07-16T09:56:50.341Z,24.43
2016-07-16T09:57:52.658Z,24.4
2016-07-16T09:58:51.765Z,24.34
2016-07-16T09:59:52.165Z,24.25
2016-07-16T10:00:51.064Z,24.42
2016-07-16T10:01:50.367Z,24.31
2016-07-16T10:02:51.077Z,24.45
2016-07-16T10:03:51.081Z,24.42
2016-07-16T10:04:51.798Z,24.5
2016-07-16T10:05:51.095Z,24.47
2016-07-16T10:06:51.809Z,24.49
2016-07-16T10:07:51.111Z,24.42
2016-07-16T10:08:52.437Z,24.39
2016-07-16T10:09:51.128Z,24.4
2016-07-16T10:10:51.266Z,24.35
2016-07-16T10:11:51.834Z,24.37
2016-07-16T10:12:51.135Z,24.52
2016-07-16T10:13:51.846Z,24.47
2016-07-16T10:14:51.856Z,24.5
2016-07-16T10:15:51.858Z,24.49
2016-07-16T10:16:51.155Z,24.53
2016-07-16T10:17:51.867Z,24.47
2016-07-16T10:18:50.459Z,24.43
2016-07-16T10:19:52.314Z,24.57
2016-07-16T10:20:50.467Z,24.53
2016-07-16T10:21:51.882Z,24.57
2016-07-16T10:22:51.194Z,24.45
2016-07-16T10:23:51.193Z,24.37
2016-07-16T10:24:50.496Z,24.35
2016-07-16T10:25:51.202Z,24.45
2016-07-16T10:26:51.222Z,24.58
2016-07-16T10:27:51.213Z,24.65
2016-07-16T10:28:51.217Z,24.64
2016-07-16T10:29:51.227Z,24.64
2016-07-16T10:30:51.318Z,24.67
2016-07-16T10:31:51.249Z,24.5
2016-07-16T10:32:51.487Z,24.55
2016-07-16T10:33:51.953Z,24.69
2016-07-16T10:34:51.255Z,24.57
2016-07-16T10:35:51.258Z,24.5
2016-07-16T10:36:51.266Z,24.5
2016-07-16T10:37:51.271Z,24.39
2016-07-16T10:38:51.277Z,24.47
2016-07-16T10:39:51.283Z,24.37
2016-07-16T10:40:52.046Z,24.34
2016-07-16T10:41:51.345Z,24.32
2016-07-16T10:42:51.302Z,24.37
2016-07-16T10:43:52.312Z,24.39
2016-07-16T10:44:50.602Z,24.32
2016-07-16T10:45:52.020Z,24.27
2016-07-16T10:46:52.026Z,24.28
2016-07-16T10:47:52.037Z,24.34
2016-07-16T10:48:51.328Z,24.4
2016-07-16T10:49:52.040Z,24.31
2016-07-16T10:50:51.336Z,24.46
2016-07-16T10:51:50.636Z,24.49
2016-07-16T10:52:51.348Z,24.5
2016-07-16T10:53:50.649Z,24.57
2016-07-16T10:54:51.557Z,24.52
2016-07-16T10:55:51.367Z,24.62
2016-07-16T10:56:51.369Z,24.52
2016-07-16T10:57:51.374Z,24.57
2016-07-16T10:58:51.387Z,24.55
2016-07-16T10:59:52.095Z,24.62
2016-07-16T11:00:52.099Z,24.55
2016-07-16T11:01:51.400Z,24.37
2016-07-16T11:02:50.701Z,24.42
2016-07-16T11:03:52.728Z,24.4
2016-07-16T11:04:50.708Z,24.34
2016-07-16T11:05:51.567Z,24.47
2016-07-16T11:06:51.425Z,24.5
2016-07-16T11:07:51.429Z,24.53
2016-07-16T11:08:52.160Z,24.55
2016-07-16T11:09:51.445Z,24.64
2016-07-16T11:10:52.155Z,24.62
2016-07-16T11:11:51.454Z,24.6
2016-07-16T11:12:51.456Z,24.55
2016-07-16T11:13:50.758Z,24.57
2016-07-16T11:14:52.587Z,24.62
2016-07-16T11:15:50.770Z,24.53
2016-07-16T11:16:52.188Z,24.52
2016-07-16T11:17:52.193Z,24.64
2016-07-16T11:18:51.492Z,24.53
2016-07-16T11:19:50.790Z,24.53
2016-07-16T11:20:51.504Z,24.49
2016-07-16T11:21:51.508Z,24.57
2016-07-16T11:22:52.227Z,24.58
2016-07-16T11:23:51.523Z,24.64
2016-07-16T11:24:51.525Z,24.65
2016-07-16T11:25:52.536Z,24.55
2016-07-16T11:26:51.540Z,24.68
2016-07-16T11:27:51.386Z,24.62
2016-07-16T11:28:51.550Z,24.65
2016-07-16T11:29:50.848Z,24.64
2016-07-16T11:30:52.270Z,24.53
2016-07-16T11:31:50.862Z,24.42
2016-07-16T11:32:51.582Z,24.37
2016-07-16T11:33:52.286Z,24.47
2016-07-16T11:34:52.293Z,24.4
2016-07-16T11:35:51.596Z,24.5
2016-07-16T11:36:53.005Z,24.58
2016-07-16T11:37:51.605Z,24.55
2016-07-16T11:38:51.353Z,24.47
2016-07-16T11:39:50.907Z,24.47
2016-07-16T11:40:51.618Z,24.53
2016-07-16T11:41:52.332Z,24.62
2016-07-16T11:42:50.924Z,24.52
2016-07-16T11:43:51.638Z,24.57
2016-07-16T11:44:51.643Z,24.68
2016-07-16T11:45:51.651Z,24.61
2016-07-16T11:46:52.362Z,24.57
2016-07-16T11:47:53.117Z,24.53
2016-07-16T11:48:51.668Z,24.53
2016-07-16T11:49:51.967Z,24.53
2016-07-16T11:50:51.677Z,24.61
2016-07-16T11:51:51.678Z,24.69
2016-07-16T11:52:50.979Z,24.65
2016-07-16T11:53:52.496Z,24.55
2016-07-16T11:54:52.404Z,24.58
2016-07-16T11:55:52.411Z,24.52
2016-07-16T11:56:52.418Z,24.58
2016-07-16T11:57:51.012Z,24.57
2016-07-16T11:58:52.525Z,24.47
2016-07-16T11:59:51.020Z,24.58
2016-07-16T12:00:51.743Z,24.53
2016-07-16T12:01:52.443Z,24.55
2016-07-16T12:02:51.740Z,24.55
2016-07-16T12:03:52.454Z,24.62
2016-07-16T12:04:52.464Z,24.67
2016-07-16T12:05:51.764Z,24.69
2016-07-16T12:06:51.767Z,24.64
2016-07-16T12:07:51.773Z,24.65
2016-07-16T12:08:52.487Z,24.73
2016-07-16T12:09:53.341Z,24.76
2016-07-16T12:10:52.493Z,24.69
2016-07-16T12:11:52.498Z,24.76
2016-07-16T12:12:51.806Z,24.76
2016-07-16T12:13:52.515Z,24.71
2016-07-16T12:14:51.816Z,24.67
2016-07-16T12:15:51.121Z,24.68
2016-07-16T12:16:52.530Z,24.64
2016-07-16T12:17:51.830Z,24.65
2016-07-16T12:18:52.557Z,24.67
2016-07-16T12:19:52.544Z,24.77
2016-07-16T12:20:52.697Z,24.65
2016-07-16T12:21:51.140Z,24.67
2016-07-16T12:22:52.572Z,24.68
2016-07-16T12:23:51.157Z,24.65
2016-07-16T12:24:52.585Z,24.65
2016-07-16T12:25:51.872Z,24.68
2016-07-16T12:26:51.176Z,24.71
2016-07-16T12:27:52.593Z,24.69
2016-07-16T12:28:52.610Z,24.67
2016-07-16T12:29:51.913Z,24.73
2016-07-16T12:30:51.905Z,24.68
2016-07-16T12:31:52.510Z,24.65
2016-07-16T12:32:52.623Z,24.71
2016-07-16T12:33:51.924Z,24.78
2016-07-16T12:34:51.926Z,24.77
2016-07-16T12:35:51.933Z,24.83
2016-07-16T12:36:51.940Z,24.71
2016-07-16T12:37:51.948Z,24.73
2016-07-16T12:38:52.656Z,24.78
2016-07-16T12:39:52.660Z,24.69
2016-07-16T12:40:51.958Z,24.84
2016-07-16T12:41:52.674Z,24.76
2016-07-16T12:42:52.323Z,24.81
2016-07-16T12:43:51.978Z,24.78
2016-07-16T12:44:51.982Z,24.67
2016-07-16T12:45:52.705Z,24.64
2016-07-16T12:46:52.704Z,24.68
2016-07-16T12:47:52.707Z,24.68
2016-07-16T12:48:52.716Z,24.67
2016-07-16T12:49:52.012Z,24.76
2016-07-16T12:50:52.020Z,24.77
2016-07-16T12:51:52.731Z,24.73
2016-07-16T12:52:51.322Z,24.84
2016-07-16T12:53:53.045Z,24.85
2016-07-16T12:55:06.215Z,24.81
2016-07-16T12:55:52.048Z,24.69
2016-07-16T12:56:52.760Z,24.78
2016-07-16T12:57:51.353Z,24.69